Time;durP1;ratioP1;P1;durP2;ratioP2;P2;SDS_P1;SDS_P2;PMS_P1;PMS_P2;Temp;Humidity;BMP_temperature;BMP_pressure;BME280_temperature;BME280_humidity;BME280_pressure;Samples;Min_cycle;Max_cycle;Signal;HPM_P1;HPM_P2
2022/07/20 00:01:04;;;;;;;2.70;1.83;;;29.20;52.90;;;;;;5105039;28;20024;-35
2022/07/20 00:03:30;;;;;;;2.78;2.00;;;29.20;52.90;;;;;;5104739;28;20027;-36
2022/07/20 00:05:56;;;;;;;3.22;2.10;;;29.10;52.90;;;;;;5105672;28;20452;-35
2022/07/20 00:11:22;;;;;;;2.17;1.98;;;29.10;53.00;;;;;;5105656;28;20092;-35
2022/07/20 00:13:48;;;;;;;;;;;29.00;53.30;;;;;;5105121;28;20024;-35
2022/07/20 00:16:13;;;;;;;2.00;1.77;;;29.00;53.10;;;;;;5105182;28;19961;-35
2022/07/20 00:18:39;;;;;;;2.40;1.90;;;28.90;53.10;;;;;;5105317;28;20327;-34
2022/07/20 00:21:04;;;;;;;3.10;2.10;;;28.90;53.20;;;;;;5104991;28;20183;-34
2022/07/20 00:23:30;;;;;;;2.50;1.80;;;28.90;53.30;;;;;;5104690;28;20451;-34
2022/07/20 00:25:55;;;;;;;3.08;2.10;;;28.80;53.30;;;;;;5105822;28;20096;-34
2022/07/20 00:28:21;;;;;;;2.30;2.10;;;28.80;53.40;;;;;;5103768;28;20074;-35
2022/07/20 00:30:46;;;;;;;3.47;2.20;;;28.80;53.50;;;;;;5104943;28;20034;-35
2022/07/20 00:33:12;;;;;;;3.10;2.53;;;28.70;53.50;;;;;;5105063;28;20090;-34
2022/07/20 00:35:38;;;;;;;6.55;2.17;;;28.70;53.60;;;;;;5104576;28;20357;-34
2022/07/20 00:38:03;;;;;;;2.50;2.30;;;28.70;53.60;;;;;;5105173;28;20024;-34
2022/07/20 00:40:29;;;;;;;2.30;2.05;;;28.60;53.60;;;;;;5104489;28;20387;-35
2022/07/20 00:42:54;;;;;;;3.53;2.35;;;28.50;53.60;;;;;;5104778;28;20470;-35
2022/07/20 00:45:20;;;;;;;3.17;2.20;;;28.50;53.70;;;;;;5105288;28;20027;-34
2022/07/20 00:47:47;;;;;;;3.42;2.50;;;28.50;53.70;;;;;;5104771;28;20102;-34
2022/07/20 00:50:14;;;;;;;2.70;2.10;;;28.40;53.70;;;;;;5104305;28;20046;-34
2022/07/20 00:52:40;;;;;;;3.72;2.47;;;28.40;53.80;;;;;;5105034;28;20019;-35
2022/07/20 00:55:07;;;;;;;2.45;2.25;;;28.40;53.80;;;;;;5105479;28;20055;-35
2022/07/20 00:57:32;;;;;;;2.75;1.80;;;28.40;53.90;;;;;;5103898;28;20440;-34
2022/07/20 00:59:58;;;;;;;2.00;1.90;;;28.30;54.50;;;;;;5105142;28;20437;-35
2022/07/20 01:02:24;;;;;;;3.00;2.08;;;28.30;53.90;;;;;;5104314;28;20464;-36
2022/07/20 01:04:49;;;;;;;2.28;1.70;;;28.30;53.90;;;;;;5103793;28;20030;-35
2022/07/20 01:07:16;;;;;;;2.33;2.08;;;28.30;54.00;;;;;;5104967;28;20042;-35
2022/07/20 01:09:41;;;;;;;2.67;2.13;;;28.20;53.90;;;;;;5103917;28;20035;-35
2022/07/20 01:12:09;;;;;;;2.65;1.67;;;28.20;54.00;;;;;;5105022;28;20020;-35
2022/07/20 01:14:35;;;;;;;2.33;2.03;;;28.20;54.00;;;;;;5104110;28;20049;-35
2022/07/20 01:17:00;;;;;;;4.07;2.47;;;28.20;54.10;;;;;;5104288;28;20387;-36
2022/07/20 01:19:26;;;;;;;2.92;2.05;;;28.10;54.10;;;;;;5103998;28;20471;-35
2022/07/20 01:21:51;;;;;;;2.53;2.15;;;28.20;54.20;;;;;;5104475;28;20031;-35
2022/07/20 01:24:17;;;;;;;2.75;2.15;;;28.10;54.20;;;;;;5104035;28;20040;-34
2022/07/20 01:26:45;;;;;;;3.05;2.13;;;28.10;54.30;;;;;;5104246;28;20031;-35
2022/07/20 01:29:12;;;;;;;2.97;2.47;;;28.00;54.30;;;;;;5104301;28;20043;-35
2022/07/20 01:31:38;;;;;;;3.38;2.13;;;28.00;54.30;;;;;;5104412;28;20135;-35
2022/07/20 01:34:04;;;;;;;4.03;2.30;;;28.00;54.30;;;;;;5104532;28;20535;-34
2022/07/20 01:36:29;;;;;;;2.40;2.10;;;28.00;54.40;;;;;;5104850;28;20028;-35
2022/07/20 01:38:55;;;;;;;2.20;2.00;;;27.90;54.40;;;;;;5105821;28;20043;-34
2022/07/20 01:41:20;;;;;;;3.00;2.03;;;27.90;54.40;;;;;;5107850;28;20099;-35
2022/07/20 01:43:46;;;;;;;2.78;2.05;;;27.90;54.50;;;;;;5108156;28;20131;-37
2022/07/20 01:46:12;;;;;;;2.28;1.90;;;27.90;54.60;;;;;;5108239;28;20059;-34
2022/07/20 01:48:37;;;;;;;2.22;2.03;;;27.90;54.60;;;;;;5107750;28;20082;-35
2022/07/20 01:51:03;;;;;;;4.03;2.25;;;27.80;54.60;;;;;;5108629;28;20111;-35
2022/07/20 01:53:29;;;;;;;2.50;2.30;;;27.80;54.70;;;;;;5106847;28;20384;-36
2022/07/20 01:55:55;;;;;;;4.82;2.00;;;27.80;54.80;;;;;;5107903;28;20023;-35
2022/07/20 01:58:21;;;;;;;3.63;2.15;;;27.70;54.80;;;;;;5107886;28;20028;-34
2022/07/20 02:00:47;;;;;;;2.92;2.40;;;27.70;54.90;;;;;;5106388;28;20035;-35
2022/07/20 02:03:13;;;;;;;2.75;2.33;;;27.70;55.00;;;;;;5107631;28;20662;-34
2022/07/20 02:05:39;;;;;;;2.42;2.00;;;27.70;55.00;;;;;;5107095;28;20028;-34
2022/07/20 02:08:04;;;;;;;3.13;2.30;;;27.60;55.00;;;;;;5107334;28;20028;-34
2022/07/20 02:10:31;;;;;;;3.10;2.00;;;27.60;55.10;;;;;;5107225;28;20426;-35
2022/07/20 02:12:56;;;;;;;2.15;2.03;;;27.50;55.10;;;;;;5107990;28;20371;-34
2022/07/20 02:18:08;;;;;;;2.88;2.30;;;27.50;55.40;;;;;;5097685;28;20095;-35
2022/07/20 02:20:34;;;;;;;3.08;2.47;;;27.40;55.50;;;;;;5106729;28;20043;-36
2022/07/20 02:23:04;;;;;;;4.10;2.20;;;27.40;55.70;;;;;;5108077;28;20023;-34
2022/07/20 02:25:30;;;;;;;2.47;2.28;;;27.40;55.90;;;;;;5107659;28;20044;-36
2022/07/20 02:27:55;;;;;;;3.83;2.50;;;27.30;56.00;;;;;;5106992;28;20030;-35
2022/07/20 02:30:21;;;;;;;3.67;2.17;;;27.30;56.10;;;;;;5107095;28;20069;-34
2022/07/20 02:32:46;;;;;;;4.43;2.70;;;27.20;56.30;;;;;;5106904;28;20028;-34
2022/07/20 02:35:12;;;;;;;4.18;2.40;;;27.10;56.50;;;;;;5106770;28;20023;-34
2022/07/20 02:37:38;;;;;;;2.88;2.33;;;27.10;56.90;;;;;;5106590;28;20035;-37
2022/07/20 02:40:04;;;;;;;3.28;2.70;;;27.00;57.00;;;;;;5107474;28;20035;-35
2022/07/20 02:42:30;;;;;;;2.40;2.20;;;27.00;57.30;;;;;;5105528;28;20027;-33
2022/07/20 02:44:56;;;;;;;4.63;2.70;;;26.90;57.50;;;;;;5107358;28;20040;-35
2022/07/20 02:47:21;;;;;;;3.08;2.78;;;26.90;57.70;;;;;;5107396;28;20076;-36
2022/07/20 02:49:47;;;;;;;3.30;2.47;;;26.80;57.90;;;;;;5105871;28;20055;-34
2022/07/20 02:52:12;;;;;;;3.20;2.90;;;26.80;58.20;;;;;;5106881;28;20027;-34
2022/07/20 02:54:38;;;;;;;4.53;2.65;;;26.70;58.50;;;;;;5106785;28;20027;-34
2022/07/20 02:57:04;;;;;;;2.60;2.40;;;26.60;58.50;;;;;;5105754;28;20019;-34
2022/07/20 02:59:29;;;;;;;5.25;2.92;;;26.60;58.60;;;;;;5106452;28;20127;-34
2022/07/20 03:01:55;;;;;;;4.25;2.22;;;26.50;58.70;;;;;;5106853;28;20027;-35
2022/07/20 03:04:20;;;;;;;3.20;2.80;;;26.50;58.80;;;;;;5105927;28;20019;-34
2022/07/20 03:06:46;;;;;;;4.07;3.00;;;26.40;59.00;;;;;;5106034;28;20035;-34
2022/07/20 03:09:11;;;;;;;2.97;2.70;;;26.40;59.20;;;;;;5106228;28;20049;-35
2022/07/20 03:11:37;;;;;;;2.92;2.42;;;26.30;59.30;;;;;;5106367;28;20023;-35
2022/07/20 03:14:02;;;;;;;2.97;2.70;;;26.30;59.50;;;;;;5106456;28;20051;-35
2022/07/20 03:16:28;;;;;;;3.67;2.63;;;26.30;59.50;;;;;;5106218;28;20062;-35
2022/07/20 03:18:54;;;;;;;2.60;2.40;;;26.20;59.30;;;;;;5105603;28;20502;-34
2022/07/20 03:21:19;;;;;;;3.63;2.42;;;26.20;59.40;;;;;;5103564;28;20024;-35
2022/07/20 03:23:45;;;;;;;2.97;2.65;;;26.20;59.50;;;;;;5098791;28;20039;-34
2022/07/20 03:26:10;;;;;;;2.90;2.65;;;26.20;59.60;;;;;;5106262;28;20023;-37
2022/07/20 03:28:36;;;;;;;3.08;2.58;;;26.20;59.70;;;;;;5105900;28;20019;-35
2022/07/20 03:31:02;;;;;;;3.20;2.70;;;26.10;60.30;;;;;;5105406;28;20413;-35
2022/07/20 03:33:27;;;;;;;3.17;2.45;;;26.00;59.80;;;;;;5105210;28;20502;-34
2022/07/20 03:35:53;;;;;;;4.03;2.47;;;25.90;59.90;;;;;;5106080;28;20119;-36
2022/07/20 03:38:18;;;;;;;3.08;2.78;;;25.80;60.00;;;;;;5105534;28;20475;-34
2022/07/20 03:40:44;;;;;;;3.20;2.50;;;25.80;60.20;;;;;;5105622;28;20474;-35
2022/07/20 03:43:09;;;;;;;3.28;2.97;;;25.70;60.50;;;;;;5105608;28;20040;-35
2022/07/20 03:45:35;;;;;;;4.10;2.80;;;25.70;60.80;;;;;;5104906;28;20205;-36
2022/07/20 03:48:00;;;;;;;3.70;2.70;;;25.60;60.90;;;;;;5105986;28;20032;-35
2022/07/20 03:50:26;;;;;;;3.13;2.50;;;25.60;61.10;;;;;;5105373;28;20024;-34
2022/07/20 03:52:52;;;;;;;3.17;2.63;;;25.60;61.40;;;;;;5106110;28;20027;-34
2022/07/20 03:55:17;;;;;;;4.13;3.05;;;25.50;61.80;;;;;;5106052;28;20030;-35
2022/07/20 03:57:43;;;;;;;6.18;2.80;;;25.40;62.30;;;;;;5105859;28;20031;-34
2022/07/20 04:00:09;;;;;;;5.18;2.97;;;25.30;63.00;;;;;;5104688;28;20031;-35
2022/07/20 04:02:35;;;;;;;3.10;2.80;;;25.20;63.50;;;;;;5104241;28;20207;-35
2022/07/20 04:05:00;;;;;;;5.30;2.85;;;25.10;64.10;;;;;;5105764;28;20487;-36
2022/07/20 04:07:26;;;;;;;3.88;2.90;;;25.00;64.40;;;;;;5104672;28;20016;-35
2022/07/20 04:09:51;;;;;;;3.65;2.60;;;24.90;64.70;;;;;;5105204;28;20020;-36
2022/07/20 04:12:23;;;;;;;3.72;2.75;;;24.80;65.10;;;;;;5105070;28;20054;-36
2022/07/20 04:14:51;;;;;;;4.30;3.30;;;24.80;65.40;;;;;;5105263;28;20461;-35
2022/07/20 04:17:17;;;;;;;2.95;2.58;;;24.70;65.60;;;;;;5105139;28;20027;-36
2022/07/20 04:19:42;;;;;;;3.35;2.83;;;24.70;65.80;;;;;;5104566;28;20031;-33
2022/07/20 04:22:08;;;;;;;4.00;3.10;;;24.70;65.90;;;;;;5105043;28;20525;-35
2022/07/20 04:24:34;;;;;;;3.30;2.97;;;24.60;66.10;;;;;;5104364;28;20048;-35
2022/07/20 04:27:01;;;;;;;5.32;3.40;;;24.60;66.20;;;;;;5104935;28;20026;-34
2022/07/20 04:29:27;;;;;;;3.72;3.25;;;24.50;66.40;;;;;;5105439;28;20030;-36
2022/07/20 04:31:53;;;;;;;4.05;3.08;;;24.40;66.60;;;;;;5104911;28;20019;-35
2022/07/20 04:34:18;;;;;;;4.95;3.65;;;24.40;66.70;;;;;;5104672;28;20043;-35
2022/07/20 04:36:44;;;;;;;3.53;3.22;;;24.40;66.90;;;;;;5104685;28;20031;-34
2022/07/20 04:39:10;;;;;;;4.90;3.88;;;24.40;67.10;;;;;;5105038;28;20092;-35
2022/07/20 04:41:36;;;;;;;4.07;3.67;;;24.40;67.20;;;;;;5103829;28;20027;-34
2022/07/20 04:44:01;;;;;;;4.63;3.67;;;24.40;67.40;;;;;;5104989;28;20016;-34
2022/07/20 04:46:28;;;;;;;5.95;4.15;;;24.40;67.70;;;;;;5104514;28;20024;-34
2022/07/20 04:48:54;;;;;;;6.05;3.95;;;24.40;67.90;;;;;;5104145;28;20407;-34
2022/07/20 04:51:19;;;;;;;6.13;4.93;;;24.30;68.10;;;;;;5104895;28;20032;-34
2022/07/20 04:53:45;;;;;;;5.25;4.38;;;24.30;68.60;;;;;;5105185;28;20089;-34
2022/07/20 04:56:10;;;;;;;5.63;5.05;;;24.20;69.10;;;;;;5104109;28;20024;-34
2022/07/20 04:58:36;;;;;;;8.30;5.68;;;24.20;69.40;;;;;;5104929;28;20031;-33
2022/07/20 05:01:02;;;;;;;8.32;5.85;;;24.10;69.80;;;;;;5105511;28;20027;-34
2022/07/20 05:03:27;;;;;;;6.97;6.00;;;24.10;70.30;;;;;;5103972;28;20099;-34
2022/07/20 05:05:53;;;;;;;9.10;6.20;;;24.10;70.70;;;;;;5105015;28;20383;-33
2022/07/20 05:08:19;;;;;;;8.43;6.90;;;24.20;71.00;;;;;;5104965;28;20395;-34
2022/07/20 05:10:44;;;;;;;9.02;7.65;;;24.20;71.40;;;;;;5103800;28;20072;-34
2022/07/20 05:13:10;;;;;;;8.75;7.47;;;24.20;71.90;;;;;;5104671;28;20027;-34
2022/07/20 05:15:35;;;;;;;11.15;8.50;;;24.20;72.20;;;;;;5108453;28;20465;-35
2022/07/20 05:18:01;;;;;;;11.25;8.75;;;24.20;72.60;;;;;;5108726;28;20031;-35
2022/07/20 05:20:26;;;;;;;9.77;8.82;;;24.30;73.00;;;;;;5108308;28;20039;-35
2022/07/20 05:22:52;;;;;;;10.50;8.25;;;24.30;73.30;;;;;;5108275;28;20034;-35
2022/07/20 05:25:18;;;;;;;12.05;9.30;;;24.40;73.70;;;;;;5108265;28;20090;-35
2022/07/20 05:27:43;;;;;;;10.82;9.40;;;24.40;73.90;;;;;;5107979;28;20446;-34
2022/07/20 05:30:09;;;;;;;14.85;10.27;;;24.40;74.40;;;;;;5108205;28;20019;-35
2022/07/20 05:32:35;;;;;;;10.40;9.23;;;24.40;74.80;;;;;;5107267;28;20035;-35
2022/07/20 05:35:00;;;;;;;12.82;10.68;;;24.40;75.10;;;;;;5108304;28;20068;-34
2022/07/20 05:37:26;;;;;;;12.50;10.35;;;24.50;75.70;;;;;;5107378;28;20072;-34
2022/07/20 05:39:51;;;;;;;12.00;10.80;;;24.50;75.90;;;;;;5107662;28;20483;-34
2022/07/20 05:42:17;;;;;;;14.68;12.45;;;24.50;76.40;;;;;;5107999;28;20020;-34
2022/07/20 05:44:42;;;;;;;17.85;12.52;;;24.50;76.80;;;;;;5107499;28;20051;-34
2022/07/20 05:47:09;;;;;;;15.20;12.80;;;24.60;77.20;;;;;;5108094;28;20019;-35
2022/07/20 05:49:35;;;;;;;15.75;13.73;;;24.60;77.50;;;;;;5107550;28;20055;-38
2022/07/20 05:52:01;;;;;;;16.73;14.25;;;24.70;77.90;;;;;;5107906;28;20012;-35
2022/07/20 05:54:27;;;;;;;17.60;14.82;;;24.70;78.20;;;;;;5107295;28;20042;-35
2022/07/20 05:56:52;;;;;;;21.20;14.93;;;24.80;78.50;;;;;;5107903;28;20031;-40
2022/07/20 05:59:18;;;;;;;16.40;13.85;;;24.90;78.70;;;;;;5107759;28;20038;-35
2022/07/20 06:01:44;;;;;;;18.45;16.25;;;24.90;78.80;;;;;;5108624;28;20426;-35
2022/07/20 06:04:11;;;;;;;18.67;16.58;;;24.90;78.90;;;;;;5107944;28;20023;-35
2022/07/20 06:06:37;;;;;;;18.83;16.38;;;25.00;79.30;;;;;;5106871;28;20483;-35
2022/07/20 06:09:04;;;;;;;21.67;17.23;;;25.00;79.50;;;;;;5107656;28;20059;-35
2022/07/20 06:11:30;;;;;;;20.58;17.52;;;25.00;80.00;;;;;;5107934;28;20050;-35
2022/07/20 06:13:55;;;;;;;21.98;18.00;;;25.00;80.20;;;;;;5107217;28;20712;-36
2022/07/20 06:16:21;;;;;;;21.95;18.42;;;25.10;80.60;;;;;;5107580;28;20031;-35
2022/07/20 06:18:46;;;;;;;19.77;17.67;;;25.10;80.80;;;;;;5107285;28;20036;-35
2022/07/20 06:21:14;;;;;;;21.77;17.92;;;25.20;81.10;;;;;;5106663;28;20031;-36
2022/07/20 06:23:40;;;;;;;22.02;18.25;;;25.20;81.40;;;;;;5106968;28;20047;-35
2022/07/20 06:26:05;;;;;;;21.25;18.70;;;25.20;81.50;;;;;;5106024;28;20031;-35
2022/07/20 06:28:31;;;;;;;25.58;21.40;;;25.20;82.10;;;;;;5106880;28;20028;-34
2022/07/20 06:30:56;;;;;;;21.95;19.20;;;25.20;82.80;;;;;;5107290;28;20024;-35
2022/07/20 06:33:22;;;;;;;22.75;18.98;;;25.30;82.90;;;;;;5106666;28;20031;-35
2022/07/20 06:35:48;;;;;;;24.55;20.02;;;25.30;82.90;;;;;;5107185;28;20066;-35
2022/07/20 06:38:13;;;;;;;28.63;22.95;;;25.30;83.00;;;;;;5106817;28;20063;-36
2022/07/20 06:40:39;;;;;;;22.48;19.80;;;25.30;84.10;;;;;;5106486;28;20039;-35
2022/07/20 06:43:04;;;;;;;24.02;20.88;;;25.30;83.90;;;;;;5107211;28;20470;-34
2022/07/20 06:45:30;;;;;;;22.40;18.75;;;25.40;84.30;;;;;;5106696;28;20365;-36
2022/07/20 06:47:55;;;;;;;22.88;18.83;;;25.50;84.20;;;;;;5106464;28;20493;-36
2022/07/20 06:50:21;;;;;;;20.92;18.40;;;25.50;84.00;;;;;;5107171;28;20034;-35
2022/07/20 06:52:46;;;;;;;20.70;18.50;;;25.60;84.00;;;;;;5106902;28;20465;-34
2022/07/20 06:55:12;;;;;;;18.98;16.98;;;25.70;84.10;;;;;;5105768;28;20035;-34
2022/07/20 06:57:37;;;;;;;22.45;18.20;;;25.80;83.90;;;;;;5106474;28;20081;-36
2022/07/20 07:00:07;;;;;;;22.98;17.95;;;25.90;83.60;;;;;;5106919;28;20342;-35
2022/07/20 07:02:33;;;;;;;24.63;19.33;;;26.00;83.50;;;;;;5094775;28;20020;-35
2022/07/20 07:04:59;;;;;;;19.92;17.67;;;26.00;84.30;;;;;;5106771;28;20030;-35
2022/07/20 07:07:24;;;;;;;20.17;18.08;;;26.20;83.40;;;;;;5105977;28;20019;-35
2022/07/20 07:09:50;;;;;;;18.45;16.17;;;26.20;83.30;;;;;;5105651;28;20032;-35
2022/07/20 07:12:16;;;;;;;17.27;15.43;;;26.20;83.00;;;;;;5106159;28;20156;-35
2022/07/20 07:14:41;;;;;;;19.33;15.55;;;26.30;83.50;;;;;;5106964;28;20031;-35
2022/07/20 07:17:07;;;;;;;18.85;16.20;;;26.40;82.50;;;;;;5106058;28;20026;-35
2022/07/20 07:19:33;;;;;;;16.20;14.45;;;26.40;82.50;;;;;;5106890;28;20084;-36
2022/07/20 07:21:59;;;;;;;17.65;15.60;;;26.50;82.50;;;;;;5106190;28;20459;-36
2022/07/20 07:24:24;;;;;;;16.67;13.82;;;26.50;82.30;;;;;;5105046;28;20055;-34
2022/07/20 07:26:50;;;;;;;15.73;12.73;;;26.60;82.00;;;;;;5106444;28;20727;-34
2022/07/20 07:29:16;;;;;;;15.95;12.60;;;26.70;81.70;;;;;;5105726;28;20028;-34
2022/07/20 07:31:41;;;;;;;17.75;13.27;;;26.70;81.60;;;;;;5106032;28;20024;-34
2022/07/20 07:34:07;;;;;;;14.27;12.27;;;26.80;81.50;;;;;;5106620;28;20059;-34
2022/07/20 07:36:32;;;;;;;16.33;12.35;;;26.90;81.40;;;;;;5104943;28;20467;-34
2022/07/20 07:38:58;;;;;;;14.20;11.43;;;26.90;81.20;;;;;;5105671;28;20778;-34
2022/07/20 07:41:24;;;;;;;15.20;12.77;;;26.90;81.30;;;;;;5105988;28;20035;-35
2022/07/20 07:43:50;;;;;;;14.82;12.23;;;26.90;81.20;;;;;;5105625;28;20099;-34
2022/07/20 07:46:15;;;;;;;12.98;11.23;;;26.80;81.20;;;;;;5105033;28;20285;-34
2022/07/20 07:48:41;;;;;;;13.38;10.68;;;26.80;81.10;;;;;;5105869;28;20084;-33
2022/07/20 07:51:06;;;;;;;15.98;11.13;;;26.80;81.00;;;;;;5105135;28;20534;-35
2022/07/20 07:53:32;;;;;;;14.38;11.20;;;26.80;81.00;;;;;;5105099;28;20386;-35
2022/07/20 07:55:57;;;;;;;11.10;9.98;;;26.80;80.90;;;;;;5106414;28;20085;-34
2022/07/20 07:58:23;;;;;;;13.30;10.15;;;26.80;80.90;;;;;;5104287;28;20106;-35
2022/07/20 08:00:49;;;;;;;14.30;10.45;;;26.90;80.90;;;;;;5106440;28;20031;-34
2022/07/20 08:03:15;;;;;;;11.30;9.68;;;26.90;81.00;;;;;;5105712;28;20027;-34
2022/07/20 08:05:40;;;;;;;11.70;9.52;;;26.90;80.80;;;;;;5104839;28;20023;-34
2022/07/20 08:08:11;;;;;;;11.93;9.90;;;26.90;81.40;;;;;;5105157;28;20202;-36
2022/07/20 08:10:39;;;;;;;12.45;9.95;;;26.90;80.50;;;;;;5104946;28;20342;-35
2022/07/20 08:13:04;;;;;;;16.90;11.27;;;26.90;80.30;;;;;;5104738;28;20117;-35
2022/07/20 08:15:30;;;;;;;14.07;10.85;;;26.90;79.50;;;;;;5104955;28;20539;-35
2022/07/20 08:18:00;;;;;;;16.83;10.57;;;26.80;79.00;;;;;;5105750;28;20102;-34
2022/07/20 08:20:25;;;;;;;12.85;10.02;;;26.70;78.70;;;;;;5103907;28;20036;-34
2022/07/20 08:22:51;;;;;;;11.13;8.75;;;26.70;78.90;;;;;;5105171;28;20395;-36
2022/07/20 08:25:18;;;;;;;13.35;11.07;;;26.70;79.10;;;;;;5105715;28;20073;-35
2022/07/20 08:27:43;;;;;;;12.57;9.88;;;26.70;78.40;;;;;;5104395;28;20441;-36
2022/07/20 08:30:10;;;;;;;9.98;8.95;;;26.60;78.30;;;;;;5105161;28;20027;-34
2022/07/20 08:32:35;;;;;;;10.38;9.32;;;26.70;78.40;;;;;;5104704;28;20027;-35
2022/07/20 08:35:01;;;;;;;11.85;9.60;;;26.70;78.40;;;;;;5104758;28;20427;-36
2022/07/20 08:37:26;;;;;;;12.10;8.75;;;26.70;78.30;;;;;;5104681;28;20028;-35
2022/07/20 08:39:52;;;;;;;13.43;9.65;;;26.80;78.30;;;;;;5104729;28;20043;-35
2022/07/20 08:42:17;;;;;;;10.60;9.07;;;26.90;78.10;;;;;;5104969;28;20089;-37
2022/07/20 08:44:44;;;;;;;10.30;9.30;;;26.90;77.90;;;;;;5104710;28;20059;-35
2022/07/20 08:47:13;;;;;;;10.27;9.07;;;26.90;77.90;;;;;;5104775;28;20041;-36
2022/07/20 08:49:44;;;;;;;12.95;9.88;;;26.90;78.00;;;;;;5107304;28;20032;-36
2022/07/20 08:52:10;;;;;;;9.23;7.70;;;27.00;78.30;;;;;;5109594;28;20071;-35
2022/07/20 08:54:36;;;;;;;10.63;7.47;;;27.10;78.10;;;;;;5107871;28;20479;-34
2022/07/20 08:57:15;;;;;;;8.32;7.43;;;27.20;78.30;;;;;;5109335;28;20031;-34
2022/07/20 08:59:41;;;;;;;8.07;7.07;;;27.20;78.20;;;;;;5109032;28;20487;-35
2022/07/20 09:02:08;;;;;;;10.65;7.22;;;27.30;78.20;;;;;;5108419;28;20032;-35
2022/07/20 09:04:54;;;;;;;10.90;8.25;;;27.30;78.30;;;;;;5108254;28;20106;-35
2022/07/20 09:07:39;;;;;;;7.82;7.03;;;27.30;78.50;;;;;;5108854;28;20074;-35
2022/07/20 09:10:11;;;;;;;8.30;6.50;;;27.30;78.50;;;;;;5108236;28;20024;-34
2022/07/20 09:13:17;;;;;;;9.10;7.57;;;27.40;78.40;;;;;;5108270;28;20660;-36
2022/07/20 09:15:50;;;;;;;9.02;6.72;;;27.50;78.50;;;;;;5108235;28;20559;-34
2022/07/20 09:18:24;;;;;;;9.93;6.90;;;27.40;78.30;;;;;;5108509;28;20036;-34
2022/07/20 09:20:52;;;;;;;10.75;7.10;;;27.50;78.50;;;;;;5108502;28;20031;-34
2022/07/20 09:23:33;;;;;;;8.35;6.70;;;27.60;78.60;;;;;;5107556;28;20050;-34
2022/07/20 09:26:04;;;;;;;7.43;6.20;;;27.60;78.20;;;;;;5108783;28;20415;-34
2022/07/20 09:28:38;;;;;;;7.90;6.53;;;27.70;78.00;;;;;;5088197;28;20024;-35
2022/07/20 09:31:19;;;;;;;8.13;6.88;;;27.80;77.80;;;;;;5101889;28;20015;-35
2022/07/20 09:33:57;;;;;;;8.02;6.45;;;27.80;77.30;;;;;;5108801;28;20088;-36
2022/07/20 09:36:25;;;;;;;7.78;6.63;;;27.80;76.80;;;;;;5107322;28;20024;-35
2022/07/20 09:38:51;;;;;;;8.90;7.00;;;27.90;76.40;;;;;;5108793;28;20019;-36
2022/07/20 09:41:27;;;;;;;8.20;6.25;;;27.90;76.20;;;;;;5107816;28;20096;-35
2022/07/20 09:43:53;;;;;;;6.65;5.88;;;28.00;76.20;;;;;;5108191;28;20023;-35
2022/07/20 09:46:27;;;;;;;8.50;6.15;;;28.00;76.20;;;;;;5108012;28;20088;-35
2022/07/20 09:48:57;;;;;;;7.47;6.15;;;28.00;76.10;;;;;;5108504;28;20020;-35
2022/07/20 09:51:37;;;;;;;8.68;6.07;;;28.00;75.70;;;;;;5107698;28;20023;-35
2022/07/20 09:54:06;;;;;;;7.72;6.25;;;28.00;75.60;;;;;;5108984;28;20195;-35
2022/07/20 09:56:33;;;;;;;8.63;6.70;;;28.10;75.30;;;;;;5107244;28;20060;-37
2022/07/20 09:59:00;;;;;;;9.80;6.97;;;28.20;75.10;;;;;;5107595;28;20320;-35
2022/07/20 10:01:29;;;;;;;9.75;7.00;;;28.20;75.00;;;;;;5106222;28;20023;-35
2022/07/20 10:03:57;;;;;;;8.02;5.93;;;28.30;74.50;;;;;;5108532;28;20019;-33
2022/07/20 10:06:25;;;;;;;7.53;6.57;;;28.20;74.50;;;;;;5107137;28;20032;-35
2022/07/20 10:08:51;;;;;;;7.80;6.15;;;28.20;74.30;;;;;;5108616;28;20077;-34
2022/07/20 10:11:19;;;;;;;8.68;6.53;;;28.30;74.50;;;;;;5107052;28;20542;-34
2022/07/20 10:13:46;;;;;;;7.90;6.40;;;28.20;74.20;;;;;;5107585;28;20260;-36
2022/07/20 10:16:26;;;;;;;7.35;6.18;;;28.20;74.20;;;;;;5108463;28;20111;-35
2022/07/20 10:18:52;;;;;;;7.22;5.95;;;28.20;74.20;;;;;;5107467;28;20031;-36
2022/07/20 10:21:46;;;;;;;6.00;5.35;;;28.30;74.40;;;;;;5107366;28;20038;-36
2022/07/20 10:24:25;;;;;;;6.18;5.10;;;28.30;74.40;;;;;;5107810;28;20048;-36
2022/07/20 10:26:53;;;;;;;5.63;5.03;;;28.40;74.40;;;;;;5106730;28;20846;-35
2022/07/20 10:29:33;;;;;;;7.28;5.93;;;28.40;74.40;;;;;;5107213;28;20387;-34
2022/07/20 10:32:09;;;;;;;6.72;5.97;;;28.50;74.40;;;;;;5107698;28;20024;-35
2022/07/20 10:34:45;;;;;;;6.75;6.03;;;28.50;74.50;;;;;;5095922;28;20337;-35
2022/07/20 10:37:34;;;;;;;8.35;6.70;;;28.60;74.60;;;;;;5106904;28;20031;-37
2022/07/20 10:40:07;;;;;;;9.48;6.35;;;28.50;74.50;;;;;;5097171;28;20031;-35
2022/07/20 10:42:34;;;;;;;6.72;6.00;;;28.50;74.90;;;;;;5106444;28;20044;-35
2022/07/20 10:45:25;;;;;;;10.90;5.78;;;28.50;74.90;;;;;;5107677;28;20027;-36
2022/07/20 10:48:11;;;;;;;8.38;5.68;;;28.60;74.90;;;;;;5106388;28;20030;-34
2022/07/20 10:50:39;;;;;;;7.80;6.35;;;28.70;74.80;;;;;;5106074;28;20479;-36
2022/07/20 10:53:11;;;;;;;6.82;5.72;;;28.80;74.60;;;;;;5107355;28;20051;-36
2022/07/20 10:55:36;;;;;;;6.40;5.57;;;28.90;74.40;;;;;;5105888;28;20043;-36
2022/07/20 10:58:10;;;;;;;5.82;5.22;;;28.90;74.00;;;;;;5106836;28;20023;-35
2022/07/20 11:00:40;;;;;;;7.78;5.57;;;28.90;74.00;;;;;;5105969;28;20507;-34
2022/07/20 11:03:15;;;;;;;7.38;6.00;;;29.00;74.00;;;;;;5106905;28;20617;-36
2022/07/20 11:05:41;;;;;;;6.53;5.30;;;29.10;73.90;;;;;;5096469;28;20450;-34
2022/07/20 11:08:09;;;;;;;5.45;4.95;;;29.10;73.90;;;;;;5106581;28;20023;-35
2022/07/20 11:10:35;;;;;;;5.05;4.55;;;29.10;73.80;;;;;;5106557;28;20556;-35
2022/07/20 11:13:04;;;;;;;5.70;5.03;;;29.10;73.60;;;;;;5106202;28;20028;-35
2022/07/20 11:15:46;;;;;;;5.65;4.68;;;29.30;73.50;;;;;;5101118;28;20028;-35
2022/07/20 11:18:14;;;;;;;4.63;4.20;;;29.30;73.20;;;;;;5106753;28;20019;-34
2022/07/20 11:20:48;;;;;;;6.45;4.55;;;29.40;73.00;;;;;;5102585;28;20044;-35
2022/07/20 11:23:15;;;;;;;5.00;4.50;;;29.40;72.50;;;;;;5105239;28;20028;-35
2022/07/20 11:25:54;;;;;;;4.68;4.22;;;29.40;72.80;;;;;;5104725;28;20457;-35
2022/07/20 11:28:28;;;;;;;5.40;4.45;;;29.40;72.20;;;;;;5106560;28;20053;-36
2022/07/20 11:30:55;;;;;;;4.50;4.10;;;29.50;72.00;;;;;;5105538;28;20377;-37
2022/07/20 11:33:27;;;;;;;6.47;4.75;;;29.60;71.80;;;;;;5106522;28;20023;-35
2022/07/20 11:35:55;;;;;;;4.97;4.57;;;29.60;71.60;;;;;;5105554;28;20027;-36
2022/07/20 11:38:21;;;;;;;4.53;4.10;;;29.70;71.40;;;;;;5106022;28;20023;-37
2022/07/20 11:40:58;;;;;;;7.00;4.50;;;29.70;71.00;;;;;;5105970;28;20569;-35
2022/07/20 11:43:23;;;;;;;4.88;4.20;;;29.70;71.00;;;;;;5105407;28;20106;-35
2022/07/20 11:45:49;;;;;;;4.43;4.00;;;29.60;71.00;;;;;;5106268;28;20571;-36
2022/07/20 11:48:24;;;;;;;4.50;4.10;;;29.60;71.00;;;;;;5106576;28;20491;-35
2022/07/20 11:50:50;;;;;;;4.30;3.90;;;29.60;71.10;;;;;;5105074;28;20121;-36
2022/07/20 11:53:24;;;;;;;5.40;4.00;;;29.70;70.80;;;;;;5105903;28;20035;-42
2022/07/20 11:55:49;;;;;;;4.75;3.67;;;29.80;70.60;;;;;;5106466;28;20051;-35
2022/07/20 11:58:26;;;;;;;4.50;3.60;;;29.80;70.40;;;;;;5104934;28;20100;-34
2022/07/20 12:00:52;;;;;;;3.90;3.50;;;29.80;70.50;;;;;;5105735;28;20031;-36
2022/07/20 12:03:21;;;;;;;3.90;3.50;;;29.80;70.40;;;;;;5105700;28;20570;-35
2022/07/20 12:05:47;;;;;;;4.97;3.75;;;29.80;70.40;;;;;;5104990;28;20055;-35
2022/07/20 12:08:18;;;;;;;4.78;3.80;;;29.90;70.10;;;;;;5106033;28;20066;-35
2022/07/20 12:10:44;;;;;;;4.65;4.10;;;30.00;69.60;;;;;;5105186;28;20059;-34
2022/07/20 12:13:10;;;;;;;5.05;4.45;;;30.00;69.50;;;;;;5105463;28;20024;-35
2022/07/20 12:15:36;;;;;;;4.82;4.32;;;30.10;69.40;;;;;;5104775;28;20446;-36
2022/07/20 12:18:02;;;;;;;4.25;3.85;;;30.10;69.30;;;;;;5105132;28;20019;-36
2022/07/20 12:20:28;;;;;;;4.18;3.83;;;30.20;69.30;;;;;;5104568;28;20032;-36
2022/07/20 12:22:58;;;;;;;4.07;3.65;;;30.20;69.10;;;;;;5105121;28;20023;-34
2022/07/20 12:25:40;;;;;;;6.50;4.40;;;30.30;68.90;;;;;;5104212;28;20576;-34
2022/07/20 12:28:06;;;;;;;5.90;4.13;;;30.30;68.10;;;;;;5102901;28;20363;-34
2022/07/20 12:30:34;;;;;;;4.63;4.15;;;30.30;68.20;;;;;;5104421;28;20100;-35
2022/07/20 12:33:11;;;;;;;5.07;3.92;;;30.40;68.30;;;;;;5104986;28;20106;-35
2022/07/20 12:35:40;;;;;;;4.63;4.05;;;30.40;68.40;;;;;;5104396;28;20035;-34
2022/07/20 12:38:06;;;;;;;4.45;3.70;;;30.40;68.20;;;;;;5104136;28;20015;-34
2022/07/20 12:40:47;;;;;;;4.50;3.97;;;30.40;68.50;;;;;;5103661;28;20040;-34
2022/07/20 12:43:30;;;;;;;4.50;4.05;;;30.40;68.90;;;;;;5104556;28;20483;-35
2022/07/20 12:45:59;;;;;;;4.40;3.78;;;30.40;67.80;;;;;;5105211;28;20483;-35
2022/07/20 12:48:25;;;;;;;5.68;4.20;;;30.40;67.80;;;;;;5104665;28;20026;-34
2022/07/20 12:50:51;;;;;;;3.70;3.38;;;30.40;67.90;;;;;;5105131;28;20027;-35